sensor_id;sensor_type;location;lat;lon;timestamp;P1;durP1;ratioP1;P2;durP2;ratioP2
8628;SDS011;4352;49.404;11.092;2022-12-18T00:00:44;94.87;;;36.80;;
8628;SDS011;4352;49.404;11.092;2022-12-18T00:03:11;82.67;;;34.33;;
8628;SDS011;4352;49.404;11.092;2022-12-18T00:05:45;81.23;;;34.50;;
8628;SDS011;4352;49.404;11.092;2022-12-18T00:08:12;86.43;;;33.77;;
8628;SDS011;4352;49.404;11.092;2022-12-18T00:10:40;78.40;;;34.37;;
8628;SDS011;4352;49.404;11.092;2022-12-18T00:13:07;81.70;;;33.93;;
8628;SDS011;4352;49.404;11.092;2022-12-18T00:15:35;77.30;;;34.13;;
8628;SDS011;4352;49.404;11.092;2022-12-18T00:18:03;82.73;;;31.73;;
8628;SDS011;4352;49.404;11.092;2022-12-18T00:20:30;72.70;;;31.90;;
8628;SDS011;4352;49.404;11.092;2022-12-18T00:22:57;73.30;;;29.97;;
8628;SDS011;4352;49.404;11.092;2022-12-18T00:25:24;70.50;;;30.83;;
8628;SDS011;4352;49.404;11.092;2022-12-18T00:27:51;66.80;;;29.10;;
8628;SDS011;4352;49.404;11.092;2022-12-18T00:30:19;62.57;;;27.90;;
8628;SDS011;4352;49.404;11.092;2022-12-18T00:32:47;59.30;;;27.53;;
8628;SDS011;4352;49.404;11.092;2022-12-18T00:35:14;60.87;;;26.80;;
8628;SDS011;4352;49.404;11.092;2022-12-18T00:37:41;62.27;;;28.20;;
8628;SDS011;4352;49.404;11.092;2022-12-18T00:40:09;63.80;;;26.93;;
8628;SDS011;4352;49.404;11.092;2022-12-18T00:42:36;61.10;;;26.37;;
8628;SDS011;4352;49.404;11.092;2022-12-18T00:45:20;55.43;;;26.60;;
8628;SDS011;4352;49.404;11.092;2022-12-18T00:47:49;55.60;;;25.27;;
8628;SDS011;4352;49.404;11.092;2022-12-18T00:50:16;58.90;;;27.30;;
8628;SDS011;4352;49.404;11.092;2022-12-18T00:52:43;65.83;;;28.53;;
8628;SDS011;4352;49.404;11.092;2022-12-18T00:55:10;55.67;;;24.23;;
8628;SDS011;4352;49.404;11.092;2022-12-18T00:57:38;54.10;;;23.70;;
8628;SDS011;4352;49.404;11.092;2022-12-18T01:00:06;61.40;;;26.10;;
8628;SDS011;4352;49.404;11.092;2022-12-18T01:02:34;59.53;;;25.20;;
8628;SDS011;4352;49.404;11.092;2022-12-18T01:05:03;59.83;;;25.33;;
8628;SDS011;4352;49.404;11.092;2022-12-18T01:07:30;51.40;;;23.63;;
8628;SDS011;4352;49.404;11.092;2022-12-18T01:09:57;56.53;;;22.60;;
8628;SDS011;4352;49.404;11.092;2022-12-18T01:12:24;58.30;;;24.67;;
8628;SDS011;4352;49.404;11.092;2022-12-18T01:14:51;58.03;;;26.07;;
8628;SDS011;4352;49.404;11.092;2022-12-18T01:17:18;64.30;;;27.03;;
8628;SDS011;4352;49.404;11.092;2022-12-18T01:19:45;63.10;;;25.60;;
8628;SDS011;4352;49.404;11.092;2022-12-18T01:22:14;57.27;;;26.37;;
8628;SDS011;4352;49.404;11.092;2022-12-18T01:24:41;61.93;;;26.37;;
8628;SDS011;4352;49.404;11.092;2022-12-18T01:27:08;58.63;;;25.97;;
8628;SDS011;4352;49.404;11.092;2022-12-18T01:29:35;62.87;;;25.20;;
8628;SDS011;4352;49.404;11.092;2022-12-18T01:32:02;51.03;;;24.03;;
8628;SDS011;4352;49.404;11.092;2022-12-18T01:34:29;64.17;;;24.70;;
8628;SDS011;4352;49.404;11.092;2022-12-18T01:36:57;55.10;;;24.13;;
8628;SDS011;4352;49.404;11.092;2022-12-18T01:39:25;56.20;;;23.73;;
8628;SDS011;4352;49.404;11.092;2022-12-18T01:41:52;52.47;;;22.50;;
8628;SDS011;4352;49.404;11.092;2022-12-18T01:44:51;52.00;;;23.50;;
8628;SDS011;4352;49.404;11.092;2022-12-18T01:47:21;48.87;;;22.40;;
8628;SDS011;4352;49.404;11.092;2022-12-18T01:49:49;53.47;;;24.03;;
8628;SDS011;4352;49.404;11.092;2022-12-18T01:52:16;51.70;;;22.63;;
8628;SDS011;4352;49.404;11.092;2022-12-18T01:54:45;48.43;;;21.27;;
8628;SDS011;4352;49.404;11.092;2022-12-18T01:57:13;51.13;;;22.43;;
8628;SDS011;4352;49.404;11.092;2022-12-18T01:59:40;48.97;;;20.37;;
8628;SDS011;4352;49.404;11.092;2022-12-18T02:02:08;52.70;;;21.13;;
8628;SDS011;4352;49.404;11.092;2022-12-18T02:04:35;48.20;;;22.63;;
8628;SDS011;4352;49.404;11.092;2022-12-18T02:07:03;53.63;;;22.77;;
8628;SDS011;4352;49.404;11.092;2022-12-18T02:09:35;44.97;;;21.97;;
8628;SDS011;4352;49.404;11.092;2022-12-18T02:12:08;48.80;;;23.00;;
8628;SDS011;4352;49.404;11.092;2022-12-18T02:14:38;55.80;;;22.40;;
8628;SDS011;4352;49.404;11.092;2022-12-18T02:17:06;52.17;;;21.53;;
8628;SDS011;4352;49.404;11.092;2022-12-18T02:19:39;50.17;;;22.47;;
8628;SDS011;4352;49.404;11.092;2022-12-18T02:22:12;53.20;;;22.27;;
8628;SDS011;4352;49.404;11.092;2022-12-18T02:24:44;56.83;;;23.90;;
8628;SDS011;4352;49.404;11.092;2022-12-18T02:27:14;60.63;;;22.60;;
8628;SDS011;4352;49.404;11.092;2022-12-18T02:29:43;56.57;;;22.07;;
8628;SDS011;4352;49.404;11.092;2022-12-18T02:32:12;52.80;;;22.03;;
8628;SDS011;4352;49.404;11.092;2022-12-18T02:34:41;58.87;;;22.43;;
8628;SDS011;4352;49.404;11.092;2022-12-18T02:37:10;69.20;;;23.97;;
8628;SDS011;4352;49.404;11.092;2022-12-18T02:39:38;65.07;;;23.53;;
8628;SDS011;4352;49.404;11.092;2022-12-18T02:42:07;60.20;;;21.53;;
8628;SDS011;4352;49.404;11.092;2022-12-18T02:44:39;65.57;;;25.77;;
8628;SDS011;4352;49.404;11.092;2022-12-18T02:47:08;71.67;;;25.83;;
8628;SDS011;4352;49.404;11.092;2022-12-18T02:49:39;77.70;;;26.10;;
8628;SDS011;4352;49.404;11.092;2022-12-18T02:52:11;75.97;;;24.10;;
8628;SDS011;4352;49.404;11.092;2022-12-18T02:54:51;73.30;;;24.90;;
8628;SDS011;4352;49.404;11.092;2022-12-18T02:57:24;69.57;;;24.27;;
8628;SDS011;4352;49.404;11.092;2022-12-18T02:59:58;70.73;;;25.77;;
8628;SDS011;4352;49.404;11.092;2022-12-18T03:02:26;65.23;;;24.17;;
8628;SDS011;4352;49.404;11.092;2022-12-18T03:04:57;66.27;;;24.13;;
8628;SDS011;4352;49.404;11.092;2022-12-18T03:07:28;68.43;;;23.73;;
8628;SDS011;4352;49.404;11.092;2022-12-18T03:09:57;72.77;;;24.33;;
8628;SDS011;4352;49.404;11.092;2022-12-18T03:12:27;72.30;;;23.67;;
8628;SDS011;4352;49.404;11.092;2022-12-18T03:14:58;69.13;;;23.87;;
8628;SDS011;4352;49.404;11.092;2022-12-18T03:17:28;73.60;;;23.23;;
8628;SDS011;4352;49.404;11.092;2022-12-18T03:19:57;63.70;;;24.83;;
8628;SDS011;4352;49.404;11.092;2022-12-18T03:22:26;65.33;;;23.63;;
8628;SDS011;4352;49.404;11.092;2022-12-18T03:24:54;65.83;;;24.43;;
8628;SDS011;4352;49.404;11.092;2022-12-18T03:27:23;62.63;;;24.30;;
8628;SDS011;4352;49.404;11.092;2022-12-18T03:29:51;62.53;;;23.10;;
8628;SDS011;4352;49.404;11.092;2022-12-18T03:32:23;64.10;;;22.33;;
8628;SDS011;4352;49.404;11.092;2022-12-18T03:34:52;65.60;;;23.63;;
8628;SDS011;4352;49.404;11.092;2022-12-18T03:37:22;63.00;;;23.10;;
8628;SDS011;4352;49.404;11.092;2022-12-18T03:39:49;69.10;;;23.60;;
8628;SDS011;4352;49.404;11.092;2022-12-18T03:42:17;59.90;;;23.00;;
8628;SDS011;4352;49.404;11.092;2022-12-18T03:44:50;69.63;;;24.63;;
8628;SDS011;4352;49.404;11.092;2022-12-18T03:47:24;66.33;;;23.70;;
8628;SDS011;4352;49.404;11.092;2022-12-18T03:49:54;67.03;;;23.77;;
8628;SDS011;4352;49.404;11.092;2022-12-18T03:52:24;65.87;;;22.83;;
8628;SDS011;4352;49.404;11.092;2022-12-18T03:54:53;58.00;;;22.27;;
8628;SDS011;4352;49.404;11.092;2022-12-18T03:57:22;58.87;;;22.50;;
8628;SDS011;4352;49.404;11.092;2022-12-18T03:59:51;58.77;;;22.37;;
8628;SDS011;4352;49.404;11.092;2022-12-18T04:02:20;60.03;;;22.30;;
8628;SDS011;4352;49.404;11.092;2022-12-18T04:04:49;58.30;;;22.87;;
8628;SDS011;4352;49.404;11.092;2022-12-18T04:07:18;59.40;;;21.90;;
8628;SDS011;4352;49.404;11.092;2022-12-18T04:09:45;62.87;;;22.03;;
8628;SDS011;4352;49.404;11.092;2022-12-18T04:12:13;53.47;;;21.67;;
8628;SDS011;4352;49.404;11.092;2022-12-18T04:14:40;61.87;;;22.70;;
8628;SDS011;4352;49.404;11.092;2022-12-18T04:17:07;52.67;;;20.60;;
8628;SDS011;4352;49.404;11.092;2022-12-18T04:19:34;53.87;;;21.63;;
8628;SDS011;4352;49.404;11.092;2022-12-18T04:22:02;52.87;;;21.33;;
8628;SDS011;4352;49.404;11.092;2022-12-18T04:24:29;50.87;;;21.10;;
8628;SDS011;4352;49.404;11.092;2022-12-18T04:26:56;55.57;;;21.77;;
8628;SDS011;4352;49.404;11.092;2022-12-18T04:29:23;56.30;;;19.77;;
8628;SDS011;4352;49.404;11.092;2022-12-18T04:31:51;51.03;;;21.53;;
8628;SDS011;4352;49.404;11.092;2022-12-18T04:34:18;52.57;;;21.43;;
8628;SDS011;4352;49.404;11.092;2022-12-18T04:36:45;47.93;;;20.37;;
8628;SDS011;4352;49.404;11.092;2022-12-18T04:39:13;50.33;;;20.73;;
8628;SDS011;4352;49.404;11.092;2022-12-18T04:41:40;56.33;;;21.63;;
8628;SDS011;4352;49.404;11.092;2022-12-18T04:44:08;51.30;;;20.60;;
8628;SDS011;4352;49.404;11.092;2022-12-18T04:46:35;55.63;;;20.43;;
8628;SDS011;4352;49.404;11.092;2022-12-18T04:49:02;49.30;;;19.10;;
8628;SDS011;4352;49.404;11.092;2022-12-18T04:51:29;49.20;;;19.43;;
8628;SDS011;4352;49.404;11.092;2022-12-18T04:53:56;47.20;;;18.80;;
8628;SDS011;4352;49.404;11.092;2022-12-18T04:56:24;47.27;;;19.97;;
8628;SDS011;4352;49.404;11.092;2022-12-18T04:58:51;44.70;;;18.00;;
8628;SDS011;4352;49.404;11.092;2022-12-18T05:01:18;49.90;;;19.70;;
8628;SDS011;4352;49.404;11.092;2022-12-18T05:03:46;52.47;;;20.67;;
8628;SDS011;4352;49.404;11.092;2022-12-18T05:06:13;50.50;;;19.83;;
8628;SDS011;4352;49.404;11.092;2022-12-18T05:08:40;52.17;;;20.80;;
8628;SDS011;4352;49.404;11.092;2022-12-18T05:11:08;50.83;;;19.67;;
8628;SDS011;4352;49.404;11.092;2022-12-18T05:13:36;52.87;;;18.90;;
8628;SDS011;4352;49.404;11.092;2022-12-18T05:16:04;52.87;;;20.23;;
8628;SDS011;4352;49.404;11.092;2022-12-18T05:18:31;43.50;;;19.43;;
8628;SDS011;4352;49.404;11.092;2022-12-18T05:20:58;47.23;;;19.03;;
8628;SDS011;4352;49.404;11.092;2022-12-18T05:23:26;48.63;;;19.83;;
8628;SDS011;4352;49.404;11.092;2022-12-18T05:25:53;55.13;;;21.70;;
8628;SDS011;4352;49.404;11.092;2022-12-18T05:28:21;61.47;;;20.60;;
8628;SDS011;4352;49.404;11.092;2022-12-18T05:30:50;52.90;;;22.10;;
8628;SDS011;4352;49.404;11.092;2022-12-18T05:33:17;53.93;;;19.97;;
8628;SDS011;4352;49.404;11.092;2022-12-18T05:35:49;57.20;;;21.93;;
8628;SDS011;4352;49.404;11.092;2022-12-18T05:38:16;46.03;;;19.27;;
8628;SDS011;4352;49.404;11.092;2022-12-18T05:40:43;58.87;;;22.20;;
8628;SDS011;4352;49.404;11.092;2022-12-18T05:43:11;57.30;;;21.50;;
8628;SDS011;4352;49.404;11.092;2022-12-18T05:45:38;57.30;;;20.33;;
8628;SDS011;4352;49.404;11.092;2022-12-18T05:48:07;48.43;;;18.80;;
8628;SDS011;4352;49.404;11.092;2022-12-18T05:50:34;55.10;;;22.10;;
8628;SDS011;4352;49.404;11.092;2022-12-18T05:53:01;49.03;;;19.87;;
8628;SDS011;4352;49.404;11.092;2022-12-18T05:55:29;55.90;;;20.70;;
8628;SDS011;4352;49.404;11.092;2022-12-18T05:57:56;51.13;;;21.57;;
8628;SDS011;4352;49.404;11.092;2022-12-18T06:00:24;49.10;;;18.77;;
8628;SDS011;4352;49.404;11.092;2022-12-18T06:02:51;48.97;;;19.90;;
8628;SDS011;4352;49.404;11.092;2022-12-18T06:05:19;46.90;;;20.47;;
8628;SDS011;4352;49.404;11.092;2022-12-18T06:07:46;61.30;;;21.53;;
8628;SDS011;4352;49.404;11.092;2022-12-18T06:10:13;46.27;;;19.17;;
8628;SDS011;4352;49.404;11.092;2022-12-18T06:12:40;48.03;;;20.53;;
8628;SDS011;4352;49.404;11.092;2022-12-18T06:15:08;49.23;;;20.00;;
8628;SDS011;4352;49.404;11.092;2022-12-18T06:17:35;51.20;;;19.87;;
8628;SDS011;4352;49.404;11.092;2022-12-18T06:20:03;47.87;;;19.87;;
8628;SDS011;4352;49.404;11.092;2022-12-18T06:22:32;52.27;;;20.47;;
8628;SDS011;4352;49.404;11.092;2022-12-18T06:24:59;51.87;;;19.53;;
8628;SDS011;4352;49.404;11.092;2022-12-18T06:27:27;50.43;;;19.43;;
8628;SDS011;4352;49.404;11.092;2022-12-18T06:29:54;50.47;;;19.17;;
8628;SDS011;4352;49.404;11.092;2022-12-18T06:32:21;49.13;;;19.20;;
8628;SDS011;4352;49.404;11.092;2022-12-18T06:34:48;53.53;;;20.73;;
8628;SDS011;4352;49.404;11.092;2022-12-18T06:37:15;46.93;;;19.30;;
8628;SDS011;4352;49.404;11.092;2022-12-18T06:39:43;52.00;;;20.17;;
8628;SDS011;4352;49.404;11.092;2022-12-18T06:42:10;49.27;;;18.73;;
8628;SDS011;4352;49.404;11.092;2022-12-18T06:44:38;45.77;;;19.07;;
8628;SDS011;4352;49.404;11.092;2022-12-18T06:47:05;46.57;;;19.00;;
8628;SDS011;4352;49.404;11.092;2022-12-18T06:49:32;49.70;;;19.67;;
8628;SDS011;4352;49.404;11.092;2022-12-18T06:51:59;45.90;;;18.83;;
8628;SDS011;4352;49.404;11.092;2022-12-18T06:54:26;51.27;;;20.00;;
8628;SDS011;4352;49.404;11.092;2022-12-18T06:56:57;46.60;;;17.87;;
8628;SDS011;4352;49.404;11.092;2022-12-18T06:59:24;51.57;;;19.50;;
8628;SDS011;4352;49.404;11.092;2022-12-18T07:01:51;50.23;;;19.10;;
8628;SDS011;4352;49.404;11.092;2022-12-18T07:04:19;46.97;;;19.33;;
8628;SDS011;4352;49.404;11.092;2022-12-18T07:06:46;53.83;;;19.70;;
8628;SDS011;4352;49.404;11.092;2022-12-18T07:09:13;46.57;;;18.73;;
8628;SDS011;4352;49.404;11.092;2022-12-18T07:11:40;46.63;;;17.40;;
8628;SDS011;4352;49.404;11.092;2022-12-18T07:14:08;57.97;;;20.97;;
8628;SDS011;4352;49.404;11.092;2022-12-18T07:16:35;40.23;;;16.73;;
8628;SDS011;4352;49.404;11.092;2022-12-18T07:19:03;47.90;;;16.33;;
8628;SDS011;4352;49.404;11.092;2022-12-18T07:21:30;40.27;;;16.47;;
8628;SDS011;4352;49.404;11.092;2022-12-18T07:23:57;43.17;;;17.20;;
8628;SDS011;4352;49.404;11.092;2022-12-18T07:26:24;40.20;;;16.83;;
8628;SDS011;4352;49.404;11.092;2022-12-18T07:28:54;40.40;;;16.87;;
8628;SDS011;4352;49.404;11.092;2022-12-18T07:31:22;44.03;;;17.63;;
8628;SDS011;4352;49.404;11.092;2022-12-18T07:33:50;49.47;;;19.07;;
8628;SDS011;4352;49.404;11.092;2022-12-18T07:36:17;46.83;;;17.07;;
8628;SDS011;4352;49.404;11.092;2022-12-18T07:38:52;43.10;;;17.63;;
8628;SDS011;4352;49.404;11.092;2022-12-18T07:41:19;41.03;;;17.87;;
8628;SDS011;4352;49.404;11.092;2022-12-18T07:43:46;42.10;;;18.47;;
8628;SDS011;4352;49.404;11.092;2022-12-18T07:46:14;47.53;;;17.13;;
8628;SDS011;4352;49.404;11.092;2022-12-18T07:48:43;41.93;;;17.40;;
8628;SDS011;4352;49.404;11.092;2022-12-18T07:51:10;42.23;;;16.93;;
8628;SDS011;4352;49.404;11.092;2022-12-18T07:53:37;43.73;;;18.10;;
8628;SDS011;4352;49.404;11.092;2022-12-18T07:56:05;43.30;;;16.90;;
8628;SDS011;4352;49.404;11.092;2022-12-18T07:58:33;37.20;;;16.43;;
8628;SDS011;4352;49.404;11.092;2022-12-18T08:01:03;39.53;;;17.03;;
8628;SDS011;4352;49.404;11.092;2022-12-18T08:03:31;43.40;;;17.20;;
8628;SDS011;4352;49.404;11.092;2022-12-18T08:06:00;38.23;;;15.73;;
8628;SDS011;4352;49.404;11.092;2022-12-18T08:08:27;48.23;;;17.33;;
8628;SDS011;4352;49.404;11.092;2022-12-18T08:10:54;41.80;;;17.20;;
8628;SDS011;4352;49.404;11.092;2022-12-18T08:13:22;40.33;;;15.97;;
8628;SDS011;4352;49.404;11.092;2022-12-18T08:15:55;37.00;;;15.77;;
8628;SDS011;4352;49.404;11.092;2022-12-18T08:18:22;34.77;;;15.40;;
8628;SDS011;4352;49.404;11.092;2022-12-18T08:20:49;42.53;;;16.20;;
8628;SDS011;4352;49.404;11.092;2022-12-18T08:23:18;37.77;;;16.73;;
8628;SDS011;4352;49.404;11.092;2022-12-18T08:25:45;40.20;;;16.33;;
8628;SDS011;4352;49.404;11.092;2022-12-18T08:28:12;33.23;;;15.33;;
8628;SDS011;4352;49.404;11.092;2022-12-18T08:30:39;42.40;;;17.83;;
8628;SDS011;4352;49.404;11.092;2022-12-18T08:33:07;39.83;;;17.60;;
8628;SDS011;4352;49.404;11.092;2022-12-18T08:35:35;42.23;;;19.17;;
8628;SDS011;4352;49.404;11.092;2022-12-18T08:38:02;34.63;;;16.90;;
8628;SDS011;4352;49.404;11.092;2022-12-18T08:40:31;34.17;;;14.73;;
8628;SDS011;4352;49.404;11.092;2022-12-18T08:42:58;34.73;;;14.87;;
8628;SDS011;4352;49.404;11.092;2022-12-18T08:45:42;33.97;;;16.37;;
8628;SDS011;4352;49.404;11.092;2022-12-18T08:48:10;31.00;;;14.37;;
8628;SDS011;4352;49.404;11.092;2022-12-18T08:50:37;33.77;;;15.50;;
8628;SDS011;4352;49.404;11.092;2022-12-18T08:53:04;38.00;;;16.27;;
8628;SDS011;4352;49.404;11.092;2022-12-18T08:55:32;38.50;;;16.50;;
8628;SDS011;4352;49.404;11.092;2022-12-18T08:57:59;40.40;;;16.70;;
8628;SDS011;4352;49.404;11.092;2022-12-18T09:00:27;39.83;;;16.87;;
8628;SDS011;4352;49.404;11.092;2022-12-18T09:02:54;36.67;;;15.60;;
8628;SDS011;4352;49.404;11.092;2022-12-18T09:05:21;35.83;;;16.93;;
8628;SDS011;4352;49.404;11.092;2022-12-18T09:07:48;33.97;;;16.03;;
8628;SDS011;4352;49.404;11.092;2022-12-18T09:10:15;38.27;;;16.87;;
8628;SDS011;4352;49.404;11.092;2022-12-18T09:12:43;34.13;;;16.10;;
8628;SDS011;4352;49.404;11.092;2022-12-18T09:15:10;42.30;;;18.03;;
8628;SDS011;4352;49.404;11.092;2022-12-18T09:17:37;52.23;;;22.80;;
8628;SDS011;4352;49.404;11.092;2022-12-18T09:20:05;35.53;;;16.73;;
8628;SDS011;4352;49.404;11.092;2022-12-18T09:22:32;34.10;;;15.60;;
8628;SDS011;4352;49.404;11.092;2022-12-18T09:24:59;35.07;;;15.70;;
8628;SDS011;4352;49.404;11.092;2022-12-18T09:27:26;35.13;;;15.43;;
8628;SDS011;4352;49.404;11.092;2022-12-18T09:29:55;29.53;;;13.63;;
8628;SDS011;4352;49.404;11.092;2022-12-18T09:32:22;32.93;;;14.67;;
8628;SDS011;4352;49.404;11.092;2022-12-18T09:34:49;33.60;;;15.00;;
8628;SDS011;4352;49.404;11.092;2022-12-18T09:37:16;36.70;;;15.27;;
8628;SDS011;4352;49.404;11.092;2022-12-18T09:39:44;38.67;;;15.90;;
8628;SDS011;4352;49.404;11.092;2022-12-18T09:42:12;32.77;;;16.40;;
8628;SDS011;4352;49.404;11.092;2022-12-18T09:44:44;35.13;;;16.00;;
8628;SDS011;4352;49.404;11.092;2022-12-18T09:47:15;31.40;;;14.10;;
8628;SDS011;4352;49.404;11.092;2022-12-18T09:49:46;31.20;;;13.50;;
8628;SDS011;4352;49.404;11.092;2022-12-18T09:52:15;31.83;;;14.67;;
8628;SDS011;4352;49.404;11.092;2022-12-18T09:54:44;31.50;;;14.27;;
8628;SDS011;4352;49.404;11.092;2022-12-18T09:57:13;28.50;;;14.37;;
8628;SDS011;4352;49.404;11.092;2022-12-18T09:59:41;29.87;;;14.03;;
8628;SDS011;4352;49.404;11.092;2022-12-18T10:02:15;29.17;;;13.47;;
8628;SDS011;4352;49.404;11.092;2022-12-18T10:04:43;27.13;;;12.63;;
8628;SDS011;4352;49.404;11.092;2022-12-18T10:07:14;31.20;;;14.37;;
8628;SDS011;4352;49.404;11.092;2022-12-18T10:09:46;28.60;;;14.03;;
8628;SDS011;4352;49.404;11.092;2022-12-18T10:12:19;29.87;;;13.90;;
8628;SDS011;4352;49.404;11.092;2022-12-18T10:14:49;28.57;;;13.80;;
8628;SDS011;4352;49.404;11.092;2022-12-18T10:17:21;29.10;;;13.47;;
8628;SDS011;4352;49.404;11.092;2022-12-18T10:19:52;32.17;;;15.07;;
8628;SDS011;4352;49.404;11.092;2022-12-18T10:22:24;26.83;;;12.87;;
8628;SDS011;4352;49.404;11.092;2022-12-18T10:24:54;30.03;;;14.47;;
8628;SDS011;4352;49.404;11.092;2022-12-18T10:27:23;29.37;;;14.13;;
8628;SDS011;4352;49.404;11.092;2022-12-18T10:29:53;30.97;;;14.93;;
8628;SDS011;4352;49.404;11.092;2022-12-18T10:32:22;29.43;;;14.57;;
8628;SDS011;4352;49.404;11.092;2022-12-18T10:34:52;29.17;;;13.20;;
8628;SDS011;4352;49.404;11.092;2022-12-18T10:37:20;29.87;;;13.73;;
8628;SDS011;4352;49.404;11.092;2022-12-18T10:40:04;31.73;;;14.73;;
8628;SDS011;4352;49.404;11.092;2022-12-18T10:42:32;33.70;;;16.03;;
8628;SDS011;4352;49.404;11.092;2022-12-18T10:45:00;32.67;;;14.40;;
8628;SDS011;4352;49.404;11.092;2022-12-18T10:47:29;33.83;;;15.27;;
8628;SDS011;4352;49.404;11.092;2022-12-18T10:49:56;26.37;;;13.30;;
8628;SDS011;4352;49.404;11.092;2022-12-18T10:52:24;29.60;;;13.73;;
8628;SDS011;4352;49.404;11.092;2022-12-18T10:54:52;29.03;;;13.60;;
8628;SDS011;4352;49.404;11.092;2022-12-18T10:57:29;27.97;;;12.83;;
8628;SDS011;4352;49.404;11.092;2022-12-18T10:59:58;34.30;;;14.77;;
8628;SDS011;4352;49.404;11.092;2022-12-18T11:02:26;27.77;;;13.10;;
8628;SDS011;4352;49.404;11.092;2022-12-18T11:04:56;29.17;;;13.27;;
8628;SDS011;4352;49.404;11.092;2022-12-18T11:07:23;27.13;;;13.17;;
8628;SDS011;4352;49.404;11.092;2022-12-18T11:09:59;28.27;;;14.23;;
8628;SDS011;4352;49.404;11.092;2022-12-18T11:12:27;26.83;;;12.43;;
8628;SDS011;4352;49.404;11.092;2022-12-18T11:14:55;29.50;;;13.73;;
8628;SDS011;4352;49.404;11.092;2022-12-18T11:17:24;29.80;;;15.10;;
8628;SDS011;4352;49.404;11.092;2022-12-18T11:19:52;30.07;;;13.60;;
8628;SDS011;4352;49.404;11.092;2022-12-18T11:22:23;29.83;;;13.43;;
8628;SDS011;4352;49.404;11.092;2022-12-18T11:24:52;28.73;;;12.50;;
8628;SDS011;4352;49.404;11.092;2022-12-18T11:27:20;28.23;;;14.33;;
8628;SDS011;4352;49.404;11.092;2022-12-18T11:29:48;24.83;;;12.10;;
8628;SDS011;4352;49.404;11.092;2022-12-18T11:32:22;25.07;;;12.17;;
8628;SDS011;4352;49.404;11.092;2022-12-18T11:34:52;27.13;;;13.70;;
8628;SDS011;4352;49.404;11.092;2022-12-18T11:37:21;28.40;;;13.77;;
8628;SDS011;4352;49.404;11.092;2022-12-18T11:39:49;27.97;;;13.67;;
8628;SDS011;4352;49.404;11.092;2022-12-18T11:42:20;30.00;;;15.40;;
8628;SDS011;4352;49.404;11.092;2022-12-18T11:44:50;27.40;;;13.20;;
8628;SDS011;4352;49.404;11.092;2022-12-18T11:47:20;26.43;;;13.77;;
8628;SDS011;4352;49.404;11.092;2022-12-18T11:49:50;24.83;;;13.57;;
8628;SDS011;4352;49.404;11.092;2022-12-18T11:52:18;28.60;;;14.33;;
8628;SDS011;4352;49.404;11.092;2022-12-18T11:54:51;27.93;;;14.10;;
8628;SDS011;4352;49.404;11.092;2022-12-18T11:57:23;26.67;;;13.23;;
8628;SDS011;4352;49.404;11.092;2022-12-18T11:59:54;31.63;;;14.50;;
8628;SDS011;4352;49.404;11.092;2022-12-18T12:02:28;29.33;;;12.93;;
8628;SDS011;4352;49.404;11.092;2022-12-18T12:05:02;27.87;;;13.87;;
8628;SDS011;4352;49.404;11.092;2022-12-18T12:07:34;29.47;;;13.70;;
8628;SDS011;4352;49.404;11.092;2022-12-18T12:10:10;30.00;;;13.93;;
8628;SDS011;4352;49.404;11.092;2022-12-18T12:12:44;29.33;;;15.33;;
8628;SDS011;4352;49.404;11.092;2022-12-18T12:15:25;28.73;;;14.73;;
8628;SDS011;4352;49.404;11.092;2022-12-18T12:17:57;29.23;;;14.47;;
8628;SDS011;4352;49.404;11.092;2022-12-18T12:20:26;32.60;;;13.93;;
8628;SDS011;4352;49.404;11.092;2022-12-18T12:22:57;32.07;;;15.97;;
8628;SDS011;4352;49.404;11.092;2022-12-18T12:25:31;28.60;;;13.73;;
8628;SDS011;4352;49.404;11.092;2022-12-18T12:28:02;32.27;;;14.67;;
8628;SDS011;4352;49.404;11.092;2022-12-18T12:30:33;29.10;;;12.83;;
8628;SDS011;4352;49.404;11.092;2022-12-18T12:33:07;30.43;;;14.43;;
8628;SDS011;4352;49.404;11.092;2022-12-18T12:35:40;30.37;;;14.43;;
8628;SDS011;4352;49.404;11.092;2022-12-18T12:38:10;27.97;;;13.33;;
8628;SDS011;4352;49.404;11.092;2022-12-18T12:40:41;26.10;;;13.47;;
8628;SDS011;4352;49.404;11.092;2022-12-18T12:43:19;28.83;;;13.27;;
8628;SDS011;4352;49.404;11.092;2022-12-18T12:45:47;26.17;;;12.57;;
8628;SDS011;4352;49.404;11.092;2022-12-18T12:48:17;27.23;;;13.47;;
8628;SDS011;4352;49.404;11.092;2022-12-18T12:50:45;31.70;;;14.70;;
8628;SDS011;4352;49.404;11.092;2022-12-18T12:53:15;26.87;;;13.33;;
8628;SDS011;4352;49.404;11.092;2022-12-18T12:55:45;31.70;;;15.30;;
8628;SDS011;4352;49.404;11.092;2022-12-18T12:58:14;30.63;;;13.80;;
8628;SDS011;4352;49.404;11.092;2022-12-18T13:00:44;27.03;;;12.83;;
8628;SDS011;4352;49.404;11.092;2022-12-18T13:03:27;28.93;;;13.27;;
8628;SDS011;4352;49.404;11.092;2022-12-18T13:05:58;28.30;;;14.13;;
8628;SDS011;4352;49.404;11.092;2022-12-18T13:08:27;34.70;;;15.17;;
8628;SDS011;4352;49.404;11.092;2022-12-18T13:10:56;30.07;;;14.03;;
8628;SDS011;4352;49.404;11.092;2022-12-18T13:13:47;32.50;;;15.17;;
8628;SDS011;4352;49.404;11.092;2022-12-18T13:16:16;29.47;;;13.43;;
8628;SDS011;4352;49.404;11.092;2022-12-18T13:18:48;34.03;;;14.43;;
8628;SDS011;4352;49.404;11.092;2022-12-18T13:21:18;32.93;;;14.80;;
8628;SDS011;4352;49.404;11.092;2022-12-18T13:23:48;30.87;;;14.07;;
8628;SDS011;4352;49.404;11.092;2022-12-18T13:26:29;25.47;;;12.63;;
8628;SDS011;4352;49.404;11.092;2022-12-18T13:28:58;28.20;;;14.13;;
8628;SDS011;4352;49.404;11.092;2022-12-18T13:34:14;31.10;;;15.20;;
8628;SDS011;4352;49.404;11.092;2022-12-18T13:36:42;27.83;;;13.93;;
8628;SDS011;4352;49.404;11.092;2022-12-18T13:41:53;28.37;;;13.57;;
8628;SDS011;4352;49.404;11.092;2022-12-18T13:44:24;33.07;;;14.37;;
8628;SDS011;4352;49.404;11.092;2022-12-18T13:46:52;29.13;;;13.20;;
8628;SDS011;4352;49.404;11.092;2022-12-18T13:49:21;30.17;;;14.50;;
8628;SDS011;4352;49.404;11.092;2022-12-18T13:51:49;31.30;;;14.77;;
8628;SDS011;4352;49.404;11.092;2022-12-18T13:54:18;29.03;;;13.90;;
8628;SDS011;4352;49.404;11.092;2022-12-18T13:56:46;33.63;;;14.20;;
8628;SDS011;4352;49.404;11.092;2022-12-18T13:59:17;33.13;;;14.43;;
8628;SDS011;4352;49.404;11.092;2022-12-18T14:01:45;29.03;;;14.27;;
8628;SDS011;4352;49.404;11.092;2022-12-18T14:04:17;30.50;;;14.10;;
8628;SDS011;4352;49.404;11.092;2022-12-18T14:06:45;37.00;;;14.80;;
8628;SDS011;4352;49.404;11.092;2022-12-18T14:09:13;27.97;;;13.33;;
8628;SDS011;4352;49.404;11.092;2022-12-18T14:11:45;27.57;;;13.27;;
8628;SDS011;4352;49.404;11.092;2022-12-18T14:14:13;29.33;;;14.47;;
8628;SDS011;4352;49.404;11.092;2022-12-18T14:16:41;30.70;;;13.47;;
8628;SDS011;4352;49.404;11.092;2022-12-18T14:19:10;31.37;;;12.60;;
8628;SDS011;4352;49.404;11.092;2022-12-18T14:21:39;33.07;;;15.13;;
8628;SDS011;4352;49.404;11.092;2022-12-18T14:24:11;36.57;;;14.90;;
8628;SDS011;4352;49.404;11.092;2022-12-18T14:26:39;28.87;;;14.00;;
8628;SDS011;4352;49.404;11.092;2022-12-18T14:34:31;34.07;;;15.53;;
8628;SDS011;4352;49.404;11.092;2022-12-18T14:36:58;29.67;;;14.57;;
8628;SDS011;4352;49.404;11.092;2022-12-18T14:39:25;28.97;;;13.23;;
8628;SDS011;4352;49.404;11.092;2022-12-18T14:41:53;35.60;;;16.00;;
8628;SDS011;4352;49.404;11.092;2022-12-18T14:44:20;33.07;;;16.60;;
8628;SDS011;4352;49.404;11.092;2022-12-18T14:46:47;31.70;;;13.60;;
8628;SDS011;4352;49.404;11.092;2022-12-18T14:49:20;32.73;;;15.17;;
8628;SDS011;4352;49.404;11.092;2022-12-18T14:51:51;27.03;;;13.90;;
8628;SDS011;4352;49.404;11.092;2022-12-18T14:54:19;33.20;;;16.77;;